createdAt,value
2018-01-15T00:06:02.085Z,13
2018-01-15T00:16:02.131Z,13
2018-01-15T00:26:02.132Z,15
2018-01-15T00:36:02.229Z,13
2018-01-15T00:46:02.151Z,14
2018-01-15T00:56:02.255Z,14
2018-01-15T01:06:02.200Z,15
2018-01-15T01:16:02.215Z,14
2018-01-15T01:26:02.242Z,14
2018-01-15T01:36:02.131Z,15
2018-01-15T01:46:02.189Z,17
2018-01-15T01:56:02.156Z,15
2018-01-15T02:06:02.262Z,14
2018-01-15T02:16:02.274Z,15
2018-01-15T02:26:02.269Z,14
2018-01-15T02:36:02.233Z,14
2018-01-15T02:46:02.301Z,15
2018-01-15T02:56:02.210Z,14
2018-01-15T03:06:02.187Z,14
2018-01-15T03:16:02.277Z,15
2018-01-15T03:26:02.188Z,14
2018-01-15T03:36:02.290Z,15
2018-01-15T03:46:02.290Z,15
2018-01-15T03:56:02.335Z,14
2018-01-15T04:06:02.261Z,13
2018-01-15T04:16:02.335Z,14
2018-01-15T04:26:02.329Z,14
2018-01-15T04:36:02.400Z,14
2018-01-15T04:46:02.335Z,13
2018-01-15T04:56:02.286Z,15
2018-01-15T05:06:02.351Z,14
2018-01-15T05:16:02.437Z,14
2018-01-15T05:26:02.459Z,15
2018-01-15T05:36:02.420Z,15
2018-01-15T05:46:02.371Z,14
2018-01-15T05:56:02.387Z,14
2018-01-15T06:06:02.427Z,14
2018-01-15T06:16:02.358Z,14
2018-01-15T06:26:02.331Z,14
2018-01-15T06:36:02.406Z,14
2018-01-15T06:46:02.433Z,14
2018-01-15T06:56:02.493Z,13
2018-01-15T07:06:02.416Z,15
2018-01-15T07:16:02.550Z,13
2018-01-15T07:26:02.461Z,13
2018-01-15T07:36:02.886Z,14
2018-01-15T07:46:02.615Z,13
2018-01-15T07:56:02.578Z,16
2018-01-15T08:06:02.490Z,14
2018-01-15T08:16:02.551Z,14
2018-01-15T08:26:02.498Z,13
2018-01-15T08:36:03.152Z,13
2018-01-15T08:46:02.650Z,13
2018-01-15T08:56:02.570Z,13
2018-01-15T09:06:02.636Z,14
2018-01-15T09:16:02.604Z,13
2018-01-15T09:26:02.653Z,13
2018-01-15T09:36:02.563Z,12
2018-01-15T09:46:02.634Z,12
2018-01-15T09:56:02.580Z,12
2018-01-15T10:06:02.634Z,12
2018-01-15T10:16:02.614Z,11
2018-01-15T10:26:02.573Z,11
2018-01-15T10:36:02.595Z,10
2018-01-15T10:46:02.685Z,11
2018-01-15T10:56:03.110Z,13
2018-01-15T11:06:02.695Z,11
2018-01-15T11:16:02.862Z,11
2018-01-15T11:26:02.859Z,11
2018-01-15T11:36:03.550Z,9
2018-01-15T11:46:02.682Z,9
2018-01-15T11:56:02.647Z,9
2018-01-15T12:06:02.609Z,9
2018-01-15T12:16:02.681Z,9
2018-01-15T12:26:02.694Z,8
2018-01-15T12:36:02.861Z,8
2018-01-15T12:46:02.640Z,8
2018-01-15T12:56:02.762Z,9
2018-01-15T13:06:02.729Z,8
2018-01-15T13:16:02.800Z,7
2018-01-15T13:26:02.724Z,8
2018-01-15T13:36:02.794Z,8
2018-01-15T13:46:02.810Z,8
2018-01-15T13:56:03.232Z,7
2018-01-15T14:06:02.988Z,10
2018-01-15T14:16:03.154Z,9
2018-01-15T14:26:03.697Z,9
2018-01-15T14:36:02.979Z,9
2018-01-15T14:46:02.932Z,7
2018-01-15T14:56:04.190Z,7
2018-01-15T15:06:02.930Z,7
2018-01-15T15:16:02.829Z,8
2018-01-15T15:26:02.958Z,7
2018-01-15T15:36:02.918Z,9
2018-01-15T15:46:03.174Z,6
2018-01-15T15:56:02.981Z,7
2018-01-15T16:06:02.950Z,7
2018-01-15T16:16:03.022Z,6
2018-01-15T16:26:02.997Z,6
2018-01-15T16:36:03.009Z,6
2018-01-15T16:46:02.986Z,5
2018-01-15T16:56:03.034Z,5
2018-01-15T17:06:03.055Z,5
2018-01-15T17:16:03.889Z,5
2018-01-15T17:26:03.334Z,4
2018-01-15T17:36:03.042Z,4
2018-01-15T17:46:03.045Z,5
2018-01-15T17:56:03.093Z,5
2018-01-15T18:06:03.034Z,5
2018-01-15T18:16:03.057Z,5
2018-01-15T18:26:03.145Z,4
2018-01-15T18:36:03.101Z,3
2018-01-15T18:46:03.120Z,3
2018-01-15T18:56:03.044Z,2
2018-01-15T19:06:03.380Z,2
2018-01-15T19:16:03.294Z,2
2018-01-15T19:26:03.146Z,2
2018-01-15T19:36:03.363Z,2
2018-01-15T19:46:03.120Z,2
2018-01-15T19:56:04.060Z,1
2018-01-15T20:06:06.388Z,1
2018-01-15T20:16:03.243Z,1
2018-01-15T20:26:04.081Z,1
2018-01-15T20:36:03.287Z,1
2018-01-15T20:46:03.502Z,1
2018-01-15T20:56:03.218Z,1
2018-01-15T21:06:03.424Z,1
2018-01-15T21:16:03.156Z,1
2018-01-15T21:26:03.361Z,1
2018-01-15T21:36:03.841Z,1
2018-01-15T21:46:03.590Z,1
2018-01-15T21:56:03.253Z,2
2018-01-15T22:06:03.209Z,1
2018-01-15T22:16:03.259Z,2
2018-01-15T22:26:03.579Z,2
2018-01-15T22:36:03.289Z,2
2018-01-15T22:46:03.240Z,4
2018-01-15T22:56:03.337Z,5
2018-01-15T23:06:03.368Z,6
2018-01-15T23:16:03.344Z,6
2018-01-15T23:26:03.385Z,7
2018-01-15T23:36:03.327Z,9
2018-01-15T23:46:03.347Z,9
2018-01-15T23:56:03.316Z,8
